Barranca, Peru
Current Conditions -  °F | °C
As of 11:00 PM on Monday 22 Dec 2014 (Local Time) from SPIM Reporting Station
Broken Clouds Broken Clouds  
Wind Chill: 68°   Ceiling: 1200
Heat Index: 68°   Visibility: 6mi
Dew Point: 63°   Wind: 14mph
Humidity: 83%   Direction: 150°SSE
Pressure: 29.91"   Gusts: NA
Location:  10.74°S, 77.77°W
Report Text: SPIM 230400Z 15012KT 9999 BKN012 20/17 Q1013 NOSIG RMK PP000
Loading
Personal Weather Stations






























Interactive Weather Map New forecast layout! Learn more

10-Day Weather Forecast

Advertisements
Track Severe Weather on mobile